sensor_id;sensor_type;location;lat;lon;timestamp;P1;durP1;ratioP1;P2;durP2;ratioP2
6217;SDS011;3142;48.206;11.550;2024-01-15T00:01:36;6.50;;;4.73;;
6217;SDS011;3142;48.206;11.550;2024-01-15T00:04:02;7.17;;;4.43;;
6217;SDS011;3142;48.206;11.550;2024-01-15T00:06:29;7.60;;;4.57;;
6217;SDS011;3142;48.206;11.550;2024-01-15T00:08:57;6.17;;;4.63;;
6217;SDS011;3142;48.206;11.550;2024-01-15T00:11:23;7.60;;;4.87;;
6217;SDS011;3142;48.206;11.550;2024-01-15T00:13:51;6.97;;;4.67;;
6217;SDS011;3142;48.206;11.550;2024-01-15T00:16:18;7.60;;;5.13;;
6217;SDS011;3142;48.206;11.550;2024-01-15T00:18:44;9.30;;;5.17;;
6217;SDS011;3142;48.206;11.550;2024-01-15T00:21:11;7.23;;;5.10;;
6217;SDS011;3142;48.206;11.550;2024-01-15T00:23:39;8.30;;;5.30;;
6217;SDS011;3142;48.206;11.550;2024-01-15T00:26:08;7.23;;;5.00;;
6217;SDS011;3142;48.206;11.550;2024-01-15T00:28:34;8.13;;;5.60;;
6217;SDS011;3142;48.206;11.550;2024-01-15T00:31:03;7.37;;;4.83;;
6217;SDS011;3142;48.206;11.550;2024-01-15T00:33:30;8.10;;;5.27;;
6217;SDS011;3142;48.206;11.550;2024-01-15T00:35:57;9.17;;;5.53;;
6217;SDS011;3142;48.206;11.550;2024-01-15T00:38:23;9.80;;;5.70;;
6217;SDS011;3142;48.206;11.550;2024-01-15T00:40:50;11.87;;;5.97;;
6217;SDS011;3142;48.206;11.550;2024-01-15T00:43:17;11.80;;;6.43;;
6217;SDS011;3142;48.206;11.550;2024-01-15T00:45:44;10.00;;;6.37;;
6217;SDS011;3142;48.206;11.550;2024-01-15T00:48:12;15.37;;;7.70;;
6217;SDS011;3142;48.206;11.550;2024-01-15T00:50:38;14.20;;;8.43;;
6217;SDS011;3142;48.206;11.550;2024-01-15T00:53:05;14.43;;;8.23;;
6217;SDS011;3142;48.206;11.550;2024-01-15T00:55:31;12.60;;;7.53;;
6217;SDS011;3142;48.206;11.550;2024-01-15T00:57:58;13.43;;;8.17;;
6217;SDS011;3142;48.206;11.550;2024-01-15T01:00:24;13.23;;;8.40;;
6217;SDS011;3142;48.206;11.550;2024-01-15T01:02:51;15.10;;;9.20;;
6217;SDS011;3142;48.206;11.550;2024-01-15T01:05:19;15.17;;;8.93;;
6217;SDS011;3142;48.206;11.550;2024-01-15T01:07:46;13.60;;;7.90;;
6217;SDS011;3142;48.206;11.550;2024-01-15T01:10:12;14.63;;;8.87;;
6217;SDS011;3142;48.206;11.550;2024-01-15T01:12:39;14.23;;;8.63;;
6217;SDS011;3142;48.206;11.550;2024-01-15T01:15:05;12.73;;;7.77;;
6217;SDS011;3142;48.206;11.550;2024-01-15T01:17:33;12.97;;;7.90;;
6217;SDS011;3142;48.206;11.550;2024-01-15T01:19:59;11.70;;;7.63;;
6217;SDS011;3142;48.206;11.550;2024-01-15T01:22:30;13.70;;;7.97;;
6217;SDS011;3142;48.206;11.550;2024-01-15T01:24:56;10.50;;;6.90;;
6217;SDS011;3142;48.206;11.550;2024-01-15T01:27:23;12.37;;;7.87;;
6217;SDS011;3142;48.206;11.550;2024-01-15T01:29:49;12.50;;;7.50;;
6217;SDS011;3142;48.206;11.550;2024-01-15T01:32:16;11.53;;;6.93;;
6217;SDS011;3142;48.206;11.550;2024-01-15T01:34:43;11.37;;;6.80;;
6217;SDS011;3142;48.206;11.550;2024-01-15T01:37:09;12.93;;;6.33;;
6217;SDS011;3142;48.206;11.550;2024-01-15T01:39:39;10.53;;;6.53;;
6217;SDS011;3142;48.206;11.550;2024-01-15T01:42:05;10.50;;;6.30;;
6217;SDS011;3142;48.206;11.550;2024-01-15T01:44:32;10.03;;;5.57;;
6217;SDS011;3142;48.206;11.550;2024-01-15T01:46:58;10.67;;;6.57;;
6217;SDS011;3142;48.206;11.550;2024-01-15T01:49:26;11.27;;;5.80;;
6217;SDS011;3142;48.206;11.550;2024-01-15T01:51:53;8.30;;;5.50;;
6217;SDS011;3142;48.206;11.550;2024-01-15T01:54:21;10.07;;;6.00;;
6217;SDS011;3142;48.206;11.550;2024-01-15T01:56:49;9.40;;;5.30;;
6217;SDS011;3142;48.206;11.550;2024-01-15T01:59:17;10.20;;;5.63;;
6217;SDS011;3142;48.206;11.550;2024-01-15T02:01:44;8.40;;;5.30;;
6217;SDS011;3142;48.206;11.550;2024-01-15T02:04:11;9.57;;;5.80;;
6217;SDS011;3142;48.206;11.550;2024-01-15T02:06:37;13.23;;;7.10;;
6217;SDS011;3142;48.206;11.550;2024-01-15T02:09:04;15.47;;;8.93;;
6217;SDS011;3142;48.206;11.550;2024-01-15T02:11:30;12.47;;;6.50;;
6217;SDS011;3142;48.206;11.550;2024-01-15T02:13:58;12.40;;;6.57;;
6217;SDS011;3142;48.206;11.550;2024-01-15T02:16:25;10.60;;;5.97;;
6217;SDS011;3142;48.206;11.550;2024-01-15T02:18:51;9.00;;;6.20;;
6217;SDS011;3142;48.206;11.550;2024-01-15T02:21:18;10.83;;;6.03;;
6217;SDS011;3142;48.206;11.550;2024-01-15T02:23:45;10.07;;;6.10;;
6217;SDS011;3142;48.206;11.550;2024-01-15T02:26:12;10.33;;;6.07;;
6217;SDS011;3142;48.206;11.550;2024-01-15T02:28:38;11.30;;;6.63;;
6217;SDS011;3142;48.206;11.550;2024-01-15T02:31:06;10.17;;;6.33;;
6217;SDS011;3142;48.206;11.550;2024-01-15T02:33:33;10.60;;;6.43;;
6217;SDS011;3142;48.206;11.550;2024-01-15T02:35:59;14.37;;;8.53;;
6217;SDS011;3142;48.206;11.550;2024-01-15T02:38:25;14.37;;;7.70;;
6217;SDS011;3142;48.206;11.550;2024-01-15T02:40:53;10.70;;;6.47;;
6217;SDS011;3142;48.206;11.550;2024-01-15T02:43:20;14.97;;;7.70;;
6217;SDS011;3142;48.206;11.550;2024-01-15T02:45:46;16.27;;;7.53;;
6217;SDS011;3142;48.206;11.550;2024-01-15T02:48:12;12.47;;;7.23;;
6217;SDS011;3142;48.206;11.550;2024-01-15T02:50:39;13.13;;;7.70;;
6217;SDS011;3142;48.206;11.550;2024-01-15T02:53:05;14.47;;;7.40;;
6217;SDS011;3142;48.206;11.550;2024-01-15T02:55:32;12.43;;;7.57;;
6217;SDS011;3142;48.206;11.550;2024-01-15T02:58:00;13.10;;;7.70;;
6217;SDS011;3142;48.206;11.550;2024-01-15T03:00:26;11.57;;;6.93;;
6217;SDS011;3142;48.206;11.550;2024-01-15T03:02:53;13.20;;;7.00;;
6217;SDS011;3142;48.206;11.550;2024-01-15T03:05:19;10.53;;;7.10;;
6217;SDS011;3142;48.206;11.550;2024-01-15T03:07:46;12.07;;;7.07;;
6217;SDS011;3142;48.206;11.550;2024-01-15T03:10:12;10.53;;;6.83;;
6217;SDS011;3142;48.206;11.550;2024-01-15T03:12:39;12.07;;;7.07;;
6217;SDS011;3142;48.206;11.550;2024-01-15T03:15:07;11.20;;;6.40;;
6217;SDS011;3142;48.206;11.550;2024-01-15T03:17:33;12.77;;;7.13;;
6217;SDS011;3142;48.206;11.550;2024-01-15T03:20:00;13.57;;;7.73;;
6217;SDS011;3142;48.206;11.550;2024-01-15T03:22:27;12.20;;;7.47;;
6217;SDS011;3142;48.206;11.550;2024-01-15T03:24:53;12.77;;;7.87;;
6217;SDS011;3142;48.206;11.550;2024-01-15T03:27:20;10.13;;;6.67;;
6217;SDS011;3142;48.206;11.550;2024-01-15T03:29:46;11.40;;;6.73;;
6217;SDS011;3142;48.206;11.550;2024-01-15T03:32:14;10.70;;;6.33;;
6217;SDS011;3142;48.206;11.550;2024-01-15T03:34:41;11.73;;;6.90;;
6217;SDS011;3142;48.206;11.550;2024-01-15T03:37:07;10.17;;;6.47;;
6217;SDS011;3142;48.206;11.550;2024-01-15T03:39:34;12.27;;;7.00;;
6217;SDS011;3142;48.206;11.550;2024-01-15T03:42:00;9.97;;;6.43;;
6217;SDS011;3142;48.206;11.550;2024-01-15T03:44:26;12.43;;;7.10;;
6217;SDS011;3142;48.206;11.550;2024-01-15T03:46:53;12.07;;;6.70;;
6217;SDS011;3142;48.206;11.550;2024-01-15T03:49:21;10.97;;;6.60;;
6217;SDS011;3142;48.206;11.550;2024-01-15T03:51:47;13.63;;;7.50;;
6217;SDS011;3142;48.206;11.550;2024-01-15T03:54:13;10.77;;;6.07;;
6217;SDS011;3142;48.206;11.550;2024-01-15T03:56:40;12.53;;;7.13;;
6217;SDS011;3142;48.206;11.550;2024-01-15T03:59:06;10.30;;;6.23;;
6217;SDS011;3142;48.206;11.550;2024-01-15T04:01:33;9.50;;;5.93;;
6217;SDS011;3142;48.206;11.550;2024-01-15T04:03:59;10.90;;;7.00;;
6217;SDS011;3142;48.206;11.550;2024-01-15T04:06:27;12.67;;;6.83;;
6217;SDS011;3142;48.206;11.550;2024-01-15T04:08:53;12.73;;;6.83;;
6217;SDS011;3142;48.206;11.550;2024-01-15T04:11:20;11.87;;;6.87;;
6217;SDS011;3142;48.206;11.550;2024-01-15T04:13:47;9.93;;;5.93;;
6217;SDS011;3142;48.206;11.550;2024-01-15T04:16:13;9.93;;;6.57;;
6217;SDS011;3142;48.206;11.550;2024-01-15T04:18:40;10.93;;;5.97;;
6217;SDS011;3142;48.206;11.550;2024-01-15T04:21:06;10.03;;;6.40;;
6217;SDS011;3142;48.206;11.550;2024-01-15T04:23:34;9.57;;;5.90;;
6217;SDS011;3142;48.206;11.550;2024-01-15T04:26:00;10.43;;;5.67;;
6217;SDS011;3142;48.206;11.550;2024-01-15T04:28:27;11.97;;;6.47;;
6217;SDS011;3142;48.206;11.550;2024-01-15T04:30:53;12.00;;;6.57;;
6217;SDS011;3142;48.206;11.550;2024-01-15T04:33:20;8.07;;;5.73;;
6217;SDS011;3142;48.206;11.550;2024-01-15T04:35:46;11.50;;;6.67;;
6217;SDS011;3142;48.206;11.550;2024-01-15T04:38:13;12.37;;;6.70;;
6217;SDS011;3142;48.206;11.550;2024-01-15T04:40:41;11.50;;;6.40;;
6217;SDS011;3142;48.206;11.550;2024-01-15T04:43:07;13.60;;;7.43;;
6217;SDS011;3142;48.206;11.550;2024-01-15T04:45:33;12.83;;;6.73;;
6217;SDS011;3142;48.206;11.550;2024-01-15T04:48:00;10.53;;;6.13;;
6217;SDS011;3142;48.206;11.550;2024-01-15T04:50:26;11.77;;;6.30;;
6217;SDS011;3142;48.206;11.550;2024-01-15T04:52:53;12.97;;;7.23;;
6217;SDS011;3142;48.206;11.550;2024-01-15T04:55:19;12.43;;;6.97;;
6217;SDS011;3142;48.206;11.550;2024-01-15T04:57:47;9.93;;;6.00;;
6217;SDS011;3142;48.206;11.550;2024-01-15T05:00:13;11.23;;;6.07;;
6217;SDS011;3142;48.206;11.550;2024-01-15T05:02:40;9.90;;;5.83;;
6217;SDS011;3142;48.206;11.550;2024-01-15T05:05:07;9.93;;;5.43;;
6217;SDS011;3142;48.206;11.550;2024-01-15T05:07:33;10.83;;;6.73;;
6217;SDS011;3142;48.206;11.550;2024-01-15T05:10:00;11.20;;;6.60;;
6217;SDS011;3142;48.206;11.550;2024-01-15T05:12:26;9.50;;;5.87;;
6217;SDS011;3142;48.206;11.550;2024-01-15T05:14:54;12.37;;;6.17;;
6217;SDS011;3142;48.206;11.550;2024-01-15T05:17:21;10.27;;;5.93;;
6217;SDS011;3142;48.206;11.550;2024-01-15T05:19:47;10.67;;;5.93;;
6217;SDS011;3142;48.206;11.550;2024-01-15T05:22:13;9.53;;;5.80;;
6217;SDS011;3142;48.206;11.550;2024-01-15T05:24:40;9.53;;;5.83;;
6217;SDS011;3142;48.206;11.550;2024-01-15T05:27:06;9.80;;;5.63;;
6217;SDS011;3142;48.206;11.550;2024-01-15T05:29:33;11.67;;;5.97;;
6217;SDS011;3142;48.206;11.550;2024-01-15T05:32:01;10.13;;;5.90;;
6217;SDS011;3142;48.206;11.550;2024-01-15T05:34:27;9.60;;;5.80;;
6217;SDS011;3142;48.206;11.550;2024-01-15T05:36:53;10.10;;;5.90;;
6217;SDS011;3142;48.206;11.550;2024-01-15T05:39:20;9.80;;;6.07;;
6217;SDS011;3142;48.206;11.550;2024-01-15T05:41:46;9.43;;;5.83;;
6217;SDS011;3142;48.206;11.550;2024-01-15T05:44:13;10.93;;;6.17;;
6217;SDS011;3142;48.206;11.550;2024-01-15T05:46:39;10.77;;;6.43;;
6217;SDS011;3142;48.206;11.550;2024-01-15T05:49:07;10.47;;;6.13;;
6217;SDS011;3142;48.206;11.550;2024-01-15T05:51:33;11.67;;;6.07;;
6217;SDS011;3142;48.206;11.550;2024-01-15T05:54:00;10.80;;;5.80;;
6217;SDS011;3142;48.206;11.550;2024-01-15T05:56:26;8.70;;;5.60;;
6217;SDS011;3142;48.206;11.550;2024-01-15T05:58:53;9.40;;;5.30;;
6217;SDS011;3142;48.206;11.550;2024-01-15T06:01:19;13.23;;;6.13;;
6217;SDS011;3142;48.206;11.550;2024-01-15T06:03:45;10.97;;;6.37;;
6217;SDS011;3142;48.206;11.550;2024-01-15T06:06:13;9.90;;;5.53;;
6217;SDS011;3142;48.206;11.550;2024-01-15T06:08:40;8.40;;;5.87;;
6217;SDS011;3142;48.206;11.550;2024-01-15T06:11:06;9.27;;;5.23;;
6217;SDS011;3142;48.206;11.550;2024-01-15T06:13:33;8.17;;;5.73;;
6217;SDS011;3142;48.206;11.550;2024-01-15T06:15:59;7.57;;;5.00;;
6217;SDS011;3142;48.206;11.550;2024-01-15T06:18:25;6.97;;;5.00;;
6217;SDS011;3142;48.206;11.550;2024-01-15T06:20:52;9.10;;;5.20;;
6217;SDS011;3142;48.206;11.550;2024-01-15T06:23:20;11.77;;;5.60;;
6217;SDS011;3142;48.206;11.550;2024-01-15T06:25:46;10.03;;;7.07;;
6217;SDS011;3142;48.206;11.550;2024-01-15T06:28:13;8.50;;;4.93;;
6217;SDS011;3142;48.206;11.550;2024-01-15T06:30:39;7.23;;;4.17;;
6217;SDS011;3142;48.206;11.550;2024-01-15T06:33:06;6.37;;;4.40;;
6217;SDS011;3142;48.206;11.550;2024-01-15T06:35:32;8.47;;;5.13;;
6217;SDS011;3142;48.206;11.550;2024-01-15T06:38:00;9.87;;;5.30;;
6217;SDS011;3142;48.206;11.550;2024-01-15T06:40:27;9.13;;;5.63;;
6217;SDS011;3142;48.206;11.550;2024-01-15T06:42:54;7.93;;;4.87;;
6217;SDS011;3142;48.206;11.550;2024-01-15T06:45:20;8.80;;;5.30;;
6217;SDS011;3142;48.206;11.550;2024-01-15T06:47:47;8.60;;;4.67;;
6217;SDS011;3142;48.206;11.550;2024-01-15T06:50:13;8.60;;;5.10;;
6217;SDS011;3142;48.206;11.550;2024-01-15T06:52:40;6.97;;;4.50;;
6217;SDS011;3142;48.206;11.550;2024-01-15T06:55:06;7.87;;;4.73;;
6217;SDS011;3142;48.206;11.550;2024-01-15T06:57:34;7.30;;;4.63;;
6217;SDS011;3142;48.206;11.550;2024-01-15T07:00:01;8.43;;;5.83;;
6217;SDS011;3142;48.206;11.550;2024-01-15T07:02:32;7.60;;;4.40;;
6217;SDS011;3142;48.206;11.550;2024-01-15T07:04:59;9.23;;;5.40;;
6217;SDS011;3142;48.206;11.550;2024-01-15T07:07:25;10.40;;;5.13;;
6217;SDS011;3142;48.206;11.550;2024-01-15T07:09:54;8.97;;;5.23;;
6217;SDS011;3142;48.206;11.550;2024-01-15T07:12:21;12.03;;;6.37;;
6217;SDS011;3142;48.206;11.550;2024-01-15T07:14:49;9.93;;;5.20;;
6217;SDS011;3142;48.206;11.550;2024-01-15T07:17:15;7.40;;;4.73;;
6217;SDS011;3142;48.206;11.550;2024-01-15T07:19:41;9.27;;;5.33;;
6217;SDS011;3142;48.206;11.550;2024-01-15T07:22:08;8.17;;;5.20;;
6217;SDS011;3142;48.206;11.550;2024-01-15T07:24:35;9.83;;;5.90;;
6217;SDS011;3142;48.206;11.550;2024-01-15T07:27:01;9.77;;;5.60;;
6217;SDS011;3142;48.206;11.550;2024-01-15T07:29:29;8.80;;;5.47;;
6217;SDS011;3142;48.206;11.550;2024-01-15T07:31:59;8.63;;;5.53;;
6217;SDS011;3142;48.206;11.550;2024-01-15T07:34:25;7.77;;;5.07;;
6217;SDS011;3142;48.206;11.550;2024-01-15T07:36:52;7.67;;;5.03;;
6217;SDS011;3142;48.206;11.550;2024-01-15T07:39:18;9.67;;;5.90;;
6217;SDS011;3142;48.206;11.550;2024-01-15T07:41:45;11.00;;;6.73;;
6217;SDS011;3142;48.206;11.550;2024-01-15T07:44:11;8.77;;;5.30;;
6217;SDS011;3142;48.206;11.550;2024-01-15T07:46:37;7.80;;;4.80;;
6217;SDS011;3142;48.206;11.550;2024-01-15T07:49:06;13.03;;;6.70;;
6217;SDS011;3142;48.206;11.550;2024-01-15T07:51:32;12.17;;;6.00;;
6217;SDS011;3142;48.206;11.550;2024-01-15T07:53:59;9.67;;;5.43;;
6217;SDS011;3142;48.206;11.550;2024-01-15T07:56:25;10.30;;;5.77;;
6217;SDS011;3142;48.206;11.550;2024-01-15T07:58:52;8.27;;;5.50;;
6217;SDS011;3142;48.206;11.550;2024-01-15T08:01:18;8.97;;;6.00;;
6217;SDS011;3142;48.206;11.550;2024-01-15T08:03:45;8.27;;;5.73;;
6217;SDS011;3142;48.206;11.550;2024-01-15T08:06:13;14.43;;;6.73;;
6217;SDS011;3142;48.206;11.550;2024-01-15T08:08:39;10.10;;;5.97;;
6217;SDS011;3142;48.206;11.550;2024-01-15T08:11:06;11.63;;;6.53;;
6217;SDS011;3142;48.206;11.550;2024-01-15T08:13:32;8.97;;;5.70;;
6217;SDS011;3142;48.206;11.550;2024-01-15T08:15:59;9.93;;;5.93;;
6217;SDS011;3142;48.206;11.550;2024-01-15T08:18:25;9.90;;;5.70;;
6217;SDS011;3142;48.206;11.550;2024-01-15T08:20:51;9.37;;;5.43;;
6217;SDS011;3142;48.206;11.550;2024-01-15T08:23:20;10.80;;;6.20;;
6217;SDS011;3142;48.206;11.550;2024-01-15T08:25:46;9.97;;;5.77;;
6217;SDS011;3142;48.206;11.550;2024-01-15T08:28:13;9.27;;;5.73;;
6217;SDS011;3142;48.206;11.550;2024-01-15T08:30:39;12.03;;;7.33;;
6217;SDS011;3142;48.206;11.550;2024-01-15T08:33:06;9.87;;;5.67;;
6217;SDS011;3142;48.206;11.550;2024-01-15T08:35:32;10.70;;;6.03;;
6217;SDS011;3142;48.206;11.550;2024-01-15T08:38:00;8.80;;;5.30;;
6217;SDS011;3142;48.206;11.550;2024-01-15T08:40:27;10.10;;;5.90;;
6217;SDS011;3142;48.206;11.550;2024-01-15T08:42:54;8.87;;;5.13;;
6217;SDS011;3142;48.206;11.550;2024-01-15T08:45:20;10.27;;;5.67;;
6217;SDS011;3142;48.206;11.550;2024-01-15T08:47:48;7.70;;;5.27;;
6217;SDS011;3142;48.206;11.550;2024-01-15T08:50:14;10.27;;;5.17;;
6217;SDS011;3142;48.206;11.550;2024-01-15T08:52:41;9.33;;;5.90;;
6217;SDS011;3142;48.206;11.550;2024-01-15T08:55:07;8.17;;;5.10;;
6217;SDS011;3142;48.206;11.550;2024-01-15T08:57:35;9.47;;;5.40;;
6217;SDS011;3142;48.206;11.550;2024-01-15T09:00:01;8.43;;;5.30;;
6217;SDS011;3142;48.206;11.550;2024-01-15T09:02:29;8.80;;;5.17;;
6217;SDS011;3142;48.206;11.550;2024-01-15T09:04:55;10.30;;;5.07;;
6217;SDS011;3142;48.206;11.550;2024-01-15T09:07:22;9.93;;;5.50;;
6217;SDS011;3142;48.206;11.550;2024-01-15T09:09:50;9.03;;;6.00;;
6217;SDS011;3142;48.206;11.550;2024-01-15T09:12:16;9.60;;;6.47;;
6217;SDS011;3142;48.206;11.550;2024-01-15T09:14:44;9.80;;;5.70;;
6217;SDS011;3142;48.206;11.550;2024-01-15T09:17:11;7.23;;;5.33;;
6217;SDS011;3142;48.206;11.550;2024-01-15T09:19:37;9.23;;;5.07;;
6217;SDS011;3142;48.206;11.550;2024-01-15T09:22:04;9.23;;;6.00;;
6217;SDS011;3142;48.206;11.550;2024-01-15T09:24:31;12.33;;;7.40;;
6217;SDS011;3142;48.206;11.550;2024-01-15T09:26:57;10.03;;;6.03;;
6217;SDS011;3142;48.206;11.550;2024-01-15T09:29:24;8.97;;;5.43;;
6217;SDS011;3142;48.206;11.550;2024-01-15T09:31:52;9.03;;;5.30;;
6217;SDS011;3142;48.206;11.550;2024-01-15T09:34:18;8.57;;;5.27;;
6217;SDS011;3142;48.206;11.550;2024-01-15T09:36:45;8.90;;;5.53;;
6217;SDS011;3142;48.206;11.550;2024-01-15T09:39:12;8.50;;;5.13;;
6217;SDS011;3142;48.206;11.550;2024-01-15T09:41:39;9.33;;;4.73;;
6217;SDS011;3142;48.206;11.550;2024-01-15T09:44:06;10.30;;;5.83;;
6217;SDS011;3142;48.206;11.550;2024-01-15T09:46:33;8.60;;;5.10;;
6217;SDS011;3142;48.206;11.550;2024-01-15T09:49:02;9.07;;;5.63;;
6217;SDS011;3142;48.206;11.550;2024-01-15T09:51:30;8.47;;;5.20;;
6217;SDS011;3142;48.206;11.550;2024-01-15T09:53:57;6.90;;;4.83;;
6217;SDS011;3142;48.206;11.550;2024-01-15T09:56:24;9.80;;;5.37;;
6217;SDS011;3142;48.206;11.550;2024-01-15T09:58:51;7.40;;;4.63;;
6217;SDS011;3142;48.206;11.550;2024-01-15T10:01:17;8.37;;;5.33;;
6217;SDS011;3142;48.206;11.550;2024-01-15T10:03:46;9.50;;;5.10;;
6217;SDS011;3142;48.206;11.550;2024-01-15T10:06:15;8.30;;;4.97;;
6217;SDS011;3142;48.206;11.550;2024-01-15T10:08:44;8.47;;;4.50;;
6217;SDS011;3142;48.206;11.550;2024-01-15T10:11:14;8.13;;;5.43;;
6217;SDS011;3142;48.206;11.550;2024-01-15T10:13:41;8.57;;;4.80;;
6217;SDS011;3142;48.206;11.550;2024-01-15T10:16:09;8.50;;;4.60;;
6217;SDS011;3142;48.206;11.550;2024-01-15T10:18:36;8.00;;;4.50;;
6217;SDS011;3142;48.206;11.550;2024-01-15T10:21:04;7.27;;;4.47;;
6217;SDS011;3142;48.206;11.550;2024-01-15T10:23:33;8.00;;;4.20;;
6217;SDS011;3142;48.206;11.550;2024-01-15T10:26:01;5.23;;;3.57;;
6217;SDS011;3142;48.206;11.550;2024-01-15T10:28:27;7.47;;;4.37;;
6217;SDS011;3142;48.206;11.550;2024-01-15T10:30:55;6.17;;;3.77;;
6217;SDS011;3142;48.206;11.550;2024-01-15T10:33:24;7.20;;;4.30;;
6217;SDS011;3142;48.206;11.550;2024-01-15T10:35:51;7.20;;;4.10;;
6217;SDS011;3142;48.206;11.550;2024-01-15T10:38:20;5.33;;;3.70;;
6217;SDS011;3142;48.206;11.550;2024-01-15T10:40:48;7.87;;;4.30;;
6217;SDS011;3142;48.206;11.550;2024-01-15T10:43:17;6.63;;;4.37;;
6217;SDS011;3142;48.206;11.550;2024-01-15T10:45:44;6.67;;;3.93;;
6217;SDS011;3142;48.206;11.550;2024-01-15T10:48:11;7.63;;;4.23;;
6217;SDS011;3142;48.206;11.550;2024-01-15T10:50:38;7.27;;;4.23;;
6217;SDS011;3142;48.206;11.550;2024-01-15T10:53:04;5.63;;;3.93;;
6217;SDS011;3142;48.206;11.550;2024-01-15T10:55:31;6.67;;;4.30;;
6217;SDS011;3142;48.206;11.550;2024-01-15T10:58:02;8.23;;;4.37;;
6217;SDS011;3142;48.206;11.550;2024-01-15T11:00:29;8.27;;;4.63;;
6217;SDS011;3142;48.206;11.550;2024-01-15T11:02:56;6.93;;;4.50;;
6217;SDS011;3142;48.206;11.550;2024-01-15T11:05:23;6.73;;;4.00;;
6217;SDS011;3142;48.206;11.550;2024-01-15T11:07:49;7.23;;;4.53;;
6217;SDS011;3142;48.206;11.550;2024-01-15T11:13:13;7.53;;;4.33;;
6217;SDS011;3142;48.206;11.550;2024-01-15T11:15:56;6.40;;;4.37;;
6217;SDS011;3142;48.206;11.550;2024-01-15T11:18:27;8.00;;;3.93;;
6217;SDS011;3142;48.206;11.550;2024-01-15T11:23:50;6.20;;;4.17;;
6217;SDS011;3142;48.206;11.550;2024-01-15T11:26:30;5.77;;;4.37;;
6217;SDS011;3142;48.206;11.550;2024-01-15T11:29:00;6.97;;;3.93;;
6217;SDS011;3142;48.206;11.550;2024-01-15T11:31:29;9.57;;;4.40;;
6217;SDS011;3142;48.206;11.550;2024-01-15T11:33:56;7.83;;;4.33;;
6217;SDS011;3142;48.206;11.550;2024-01-15T11:42:08;6.60;;;4.20;;
6217;SDS011;3142;48.206;11.550;2024-01-15T11:44:37;10.47;;;4.33;;
6217;SDS011;3142;48.206;11.550;2024-01-15T11:47:05;6.20;;;4.27;;
6217;SDS011;3142;48.206;11.550;2024-01-15T11:49:37;6.17;;;4.17;;
6217;SDS011;3142;48.206;11.550;2024-01-15T11:52:23;6.23;;;4.10;;
6217;SDS011;3142;48.206;11.550;2024-01-15T11:54:53;6.20;;;4.10;;
6217;SDS011;3142;48.206;11.550;2024-01-15T11:57:29;5.40;;;4.07;;
6217;SDS011;3142;48.206;11.550;2024-01-15T12:00:07;7.67;;;4.27;;
6217;SDS011;3142;48.206;11.550;2024-01-15T12:02:35;7.13;;;4.30;;
6217;SDS011;3142;48.206;11.550;2024-01-15T12:05:02;9.37;;;4.30;;
6217;SDS011;3142;48.206;11.550;2024-01-15T12:07:28;7.07;;;4.00;;
6217;SDS011;3142;48.206;11.550;2024-01-15T12:09:55;7.10;;;4.17;;
6217;SDS011;3142;48.206;11.550;2024-01-15T12:12:35;7.77;;;4.27;;
6217;SDS011;3142;48.206;11.550;2024-01-15T12:15:11;7.43;;;4.77;;
6217;SDS011;3142;48.206;11.550;2024-01-15T12:17:38;5.30;;;3.80;;
6217;SDS011;3142;48.206;11.550;2024-01-15T12:20:04;7.83;;;4.20;;
6217;SDS011;3142;48.206;11.550;2024-01-15T12:22:32;8.27;;;4.10;;
6217;SDS011;3142;48.206;11.550;2024-01-15T12:24:58;6.37;;;4.33;;
6217;SDS011;3142;48.206;11.550;2024-01-15T12:27:25;5.80;;;3.60;;
6217;SDS011;3142;48.206;11.550;2024-01-15T12:29:52;7.67;;;3.83;;
6217;SDS011;3142;48.206;11.550;2024-01-15T12:32:20;4.80;;;3.23;;
6217;SDS011;3142;48.206;11.550;2024-01-15T12:34:48;4.97;;;2.90;;
6217;SDS011;3142;48.206;11.550;2024-01-15T12:37:15;6.23;;;3.30;;
6217;SDS011;3142;48.206;11.550;2024-01-15T12:39:44;11.67;;;3.30;;
6217;SDS011;3142;48.206;11.550;2024-01-15T12:42:10;4.10;;;2.87;;
6217;SDS011;3142;48.206;11.550;2024-01-15T12:44:37;5.33;;;3.53;;
6217;SDS011;3142;48.206;11.550;2024-01-15T12:47:04;6.23;;;3.57;;
6217;SDS011;3142;48.206;11.550;2024-01-15T12:49:32;6.03;;;3.60;;
6217;SDS011;3142;48.206;11.550;2024-01-15T12:51:59;4.53;;;3.33;;
6217;SDS011;3142;48.206;11.550;2024-01-15T12:54:25;3.70;;;2.60;;
6217;SDS011;3142;48.206;11.550;2024-01-15T12:56:52;4.50;;;3.10;;
6217;SDS011;3142;48.206;11.550;2024-01-15T12:59:18;6.07;;;3.20;;
6217;SDS011;3142;48.206;11.550;2024-01-15T13:01:45;3.50;;;2.80;;
6217;SDS011;3142;48.206;11.550;2024-01-15T13:04:20;4.20;;;3.23;;
6217;SDS011;3142;48.206;11.550;2024-01-15T13:06:49;4.57;;;2.97;;
6217;SDS011;3142;48.206;11.550;2024-01-15T13:09:15;11.83;;;7.40;;
6217;SDS011;3142;48.206;11.550;2024-01-15T13:11:42;6.73;;;3.37;;
6217;SDS011;3142;48.206;11.550;2024-01-15T13:14:09;5.47;;;3.33;;
6217;SDS011;3142;48.206;11.550;2024-01-15T13:16:35;5.10;;;3.27;;
6217;SDS011;3142;48.206;11.550;2024-01-15T13:19:02;4.70;;;2.97;;
6217;SDS011;3142;48.206;11.550;2024-01-15T13:21:37;4.57;;;3.00;;
6217;SDS011;3142;48.206;11.550;2024-01-15T13:24:03;4.87;;;3.23;;
6217;SDS011;3142;48.206;11.550;2024-01-15T13:26:30;7.00;;;3.67;;
6217;SDS011;3142;48.206;11.550;2024-01-15T13:28:57;4.97;;;3.47;;
6217;SDS011;3142;48.206;11.550;2024-01-15T13:31:24;6.27;;;4.07;;
6217;SDS011;3142;48.206;11.550;2024-01-15T13:33:50;6.10;;;3.80;;
6217;SDS011;3142;48.206;11.550;2024-01-15T13:36:17;5.13;;;3.53;;
6217;SDS011;3142;48.206;11.550;2024-01-15T13:38:44;5.43;;;3.83;;
6217;SDS011;3142;48.206;11.550;2024-01-15T13:41:11;6.10;;;3.67;;
6217;SDS011;3142;48.206;11.550;2024-01-15T13:43:37;5.27;;;3.50;;
6217;SDS011;3142;48.206;11.550;2024-01-15T13:46:04;6.57;;;3.57;;
6217;SDS011;3142;48.206;11.550;2024-01-15T13:48:30;8.00;;;4.40;;
6217;SDS011;3142;48.206;11.550;2024-01-15T13:50:57;7.53;;;4.53;;
6217;SDS011;3142;48.206;11.550;2024-01-15T13:53:24;5.97;;;3.70;;
6217;SDS011;3142;48.206;11.550;2024-01-15T13:55:52;6.60;;;4.07;;
6217;SDS011;3142;48.206;11.550;2024-01-15T13:58:19;7.30;;;4.40;;
6217;SDS011;3142;48.206;11.550;2024-01-15T14:00:46;6.40;;;3.90;;
6217;SDS011;3142;48.206;11.550;2024-01-15T14:03:13;9.90;;;4.77;;
6217;SDS011;3142;48.206;11.550;2024-01-15T14:05:39;6.53;;;4.17;;
6217;SDS011;3142;48.206;11.550;2024-01-15T14:08:06;5.67;;;4.07;;
6217;SDS011;3142;48.206;11.550;2024-01-15T14:10:32;10.53;;;6.10;;
6217;SDS011;3142;48.206;11.550;2024-01-15T14:13:00;7.93;;;5.57;;
6217;SDS011;3142;48.206;11.550;2024-01-15T14:15:27;8.97;;;4.67;;
6217;SDS011;3142;48.206;11.550;2024-01-15T14:17:53;7.07;;;4.77;;
6217;SDS011;3142;48.206;11.550;2024-01-15T14:20:20;6.17;;;4.33;;
6217;SDS011;3142;48.206;11.550;2024-01-15T14:22:46;9.13;;;4.90;;
6217;SDS011;3142;48.206;11.550;2024-01-15T14:25:14;6.63;;;5.10;;
6217;SDS011;3142;48.206;11.550;2024-01-15T14:27:40;6.50;;;4.67;;
6217;SDS011;3142;48.206;11.550;2024-01-15T14:30:09;9.43;;;6.03;;
6217;SDS011;3142;48.206;11.550;2024-01-15T14:32:37;9.60;;;5.23;;
6217;SDS011;3142;48.206;11.550;2024-01-15T14:35:04;6.70;;;4.23;;
6217;SDS011;3142;48.206;11.550;2024-01-15T14:37:33;10.40;;;5.67;;
6217;SDS011;3142;48.206;11.550;2024-01-15T14:39:59;9.03;;;5.10;;
6217;SDS011;3142;48.206;11.550;2024-01-15T14:42:26;8.83;;;5.07;;
6217;SDS011;3142;48.206;11.550;2024-01-15T14:44:52;7.70;;;4.73;;
6217;SDS011;3142;48.206;11.550;2024-01-15T14:47:20;7.03;;;4.23;;
6217;SDS011;3142;48.206;11.550;2024-01-15T14:49:48;5.77;;;4.40;;
6217;SDS011;3142;48.206;11.550;2024-01-15T14:52:15;8.23;;;4.83;;
6217;SDS011;3142;48.206;11.550;2024-01-15T14:54:42;6.97;;;5.20;;
6217;SDS011;3142;48.206;11.550;2024-01-15T14:57:08;6.73;;;4.30;;
6217;SDS011;3142;48.206;11.550;2024-01-15T14:59:35;6.00;;;4.43;;
6217;SDS011;3142;48.206;11.550;2024-01-15T15:02:01;6.43;;;3.90;;
6217;SDS011;3142;48.206;11.550;2024-01-15T15:04:29;5.93;;;3.67;;
6217;SDS011;3142;48.206;11.550;2024-01-15T15:06:56;6.30;;;4.03;;